Time;durP1;ratioP1;P1;durP2;ratioP2;P2;SDS_P1;SDS_P2;PMS_P1;PMS_P2;Temp;Humidity;BMP_temperature;BMP_pressure;BME280_temperature;BME280_humidity;BME280_pressure;Samples;Min_cycle;Max_cycle;Signal;HPM_P1;HPM_P2
2023/05/26 07:02:09;;;;;;;10.45;2.42;;;;;;;;;;10202499;28;20239;-95
2023/05/26 07:07:12;;;;;;;8.05;2.63;;;;;;;;;;10276394;28;20246;-93
2023/05/26 07:12:14;;;;;;;10.43;2.65;;;;;;;;;;10288141;28;20284;-94
2023/05/26 07:17:23;;;;;;;9.88;2.03;;;;;;;;;;10289671;28;20201;-95
2023/05/26 07:22:24;;;;;;;13.00;2.75;;;;;;;;;;10281185;28;20216;-95
2023/05/26 07:27:43;;;;;;;6.30;1.83;;;;;;;;;;10275258;23;20315;-76
2023/05/26 07:32:44;;;;;;;14.30;2.33;;;;;;;;;;10290982;28;20227;-75
2023/05/26 07:37:45;;;;;;;10.43;1.67;;;;;;;;;;10317680;28;21068;-76
2023/05/26 07:42:46;;;;;;;11.23;2.38;;;;;;;;;;10306471;28;20212;-79
2023/05/26 07:47:47;;;;;;;11.25;1.63;;;;;;;;;;10312663;28;20286;-77
2023/05/26 07:52:48;;;;;;;6.40;2.10;;;;;;;;;;10309313;28;20256;-78
2023/05/26 07:57:49;;;;;;;10.80;1.73;;;;;;;;;;10300680;28;20211;-78
2023/05/26 08:02:51;;;;;;;7.03;1.80;;;;;;;;;;10311060;28;20216;-76
2023/05/26 08:07:52;;;;;;;10.25;2.05;;;;;;;;;;10320700;28;20369;-75
2023/05/26 08:12:53;;;;;;;9.43;1.95;;;;;;;;;;10301341;28;20234;-78
2023/05/26 08:17:54;;;;;;;7.10;2.05;;;;;;;;;;10321192;28;20239;-77
2023/05/26 08:22:58;;;;;;;8.55;1.98;;;;;;;;;;10317779;28;20636;-77
2023/05/26 08:27:59;;;;;;;8.15;1.70;;;;;;;;;;10316695;28;20274;-78
2023/05/26 08:33:00;;;;;;;8.45;2.33;;;;;;;;;;10318697;28;20239;-77
2023/05/26 08:38:01;;;;;;;12.05;1.83;;;;;;;;;;10309718;28;20224;-77
2023/05/26 08:43:09;;;;;;;8.80;1.90;;;;;;;;;;10297878;28;20212;-77
2023/05/26 08:48:12;;;;;;;8.18;2.58;;;;;;;;;;10313818;28;20224;-78
2023/05/26 08:53:13;;;;;;;11.35;1.70;;;;;;;;;;10301171;28;20232;-79
2023/05/26 08:58:14;;;;;;;11.82;2.22;;;;;;;;;;10311991;28;20208;-78
2023/05/26 09:03:15;;;;;;;9.00;2.20;;;;;;;;;;10300467;28;21054;-74
2023/05/26 09:08:16;;;;;;;7.20;1.90;;;;;;;;;;10306538;28;20216;-75
2023/05/26 09:13:18;;;;;;;8.82;2.33;;;;;;;;;;10303122;28;20504;-80
2023/05/26 09:18:20;;;;;;;14.02;2.53;;;;;;;;;;10303948;28;20809;-75
2023/05/26 09:23:22;;;;;;;7.95;1.80;;;;;;;;;;10302414;28;20608;-74
2023/05/26 09:28:23;;;;;;;16.00;2.50;;;;;;;;;;10288752;28;20212;-76
2023/05/26 09:33:24;;;;;;;12.63;2.50;;;;;;;;;;10309412;28;20228;-78
2023/05/26 09:38:27;;;;;;;11.93;2.88;;;;;;;;;;10294443;28;20220;-75
2023/05/26 09:43:33;;;;;;;7.75;1.60;;;;;;;;;;10305001;28;20582;-75
2023/05/26 09:48:36;;;;;;;12.55;1.60;;;;;;;;;;10321646;28;20224;-77
2023/05/26 09:53:37;;;;;;;13.27;2.47;;;;;;;;;;10329153;28;20282;-77
2023/05/26 09:58:39;;;;;;;5.95;1.75;;;;;;;;;;10326369;28;20935;-77
2023/05/26 10:03:40;;;;;;;8.20;1.95;;;;;;;;;;10357551;28;20285;-73
2023/05/26 10:08:42;;;;;;;10.48;2.42;;;;;;;;;;10346647;28;20281;-74
2023/05/26 10:13:43;;;;;;;6.50;1.92;;;;;;;;;;10355355;28;20231;-79
2023/05/26 10:18:44;;;;;;;7.25;1.65;;;;;;;;;;10346498;28;21060;-77
2023/05/26 10:23:50;;;;;;;9.77;2.30;;;;;;;;;;10364927;28;20227;-78
2023/05/26 10:28:53;;;;;;;8.65;1.83;;;;;;;;;;10362581;28;20252;-77
2023/05/26 10:33:54;;;;;;;12.63;2.30;;;;;;;;;;10350540;28;20836;-78
2023/05/26 10:38:55;;;;;;;7.15;1.40;;;;;;;;;;10364969;28;20216;-77
2023/05/26 10:43:56;;;;;;;5.47;1.40;;;;;;;;;;10358423;28;20231;-78
2023/05/26 10:48:58;;;;;;;9.68;1.95;;;;;;;;;;10357067;28;20223;-77
2023/05/26 10:54:00;;;;;;;4.50;1.20;;;;;;;;;;10344852;28;20682;-75
2023/05/26 10:59:02;;;;;;;9.27;1.38;;;;;;;;;;10350065;28;20301;-73
2023/05/26 11:04:10;;;;;;;5.40;1.23;;;;;;;;;;10356978;28;20215;-75
2023/05/26 11:09:11;;;;;;;3.58;1.75;;;;;;;;;;10376327;28;20226;-76
2023/05/26 11:14:13;;;;;;;6.78;1.83;;;;;;;;;;10341501;28;21006;-77
2023/05/26 11:19:14;;;;;;;7.00;1.67;;;;;;;;;;10357843;28;20353;-78
2023/05/26 11:24:15;;;;;;;6.18;1.20;;;;;;;;;;10362080;28;20243;-73
2023/05/26 11:29:17;;;;;;;4.28;1.23;;;;;;;;;;10322365;28;20223;-79
2023/05/26 11:34:18;;;;;;;7.93;1.42;;;;;;;;;;10374904;28;20284;-77
2023/05/26 11:39:20;;;;;;;4.25;1.30;;;;;;;;;;10370415;28;20219;-77
2023/05/26 11:44:21;;;;;;;4.75;1.40;;;;;;;;;;10373524;28;20212;-76
2023/05/26 11:49:22;;;;;;;7.90;1.70;;;;;;;;;;10339583;28;20219;-79
2023/05/26 11:54:23;;;;;;;5.95;1.10;;;;;;;;;;10342663;28;20284;-78
2023/05/26 11:59:24;;;;;;;4.82;1.42;;;;;;;;;;10362334;28;20238;-77
2023/05/26 12:04:28;;;;;;;5.35;1.27;;;;;;;;;;10331820;28;20222;-77
2023/05/26 12:09:30;;;;;;;4.13;1.85;;;;;;;;;;10331592;28;20216;-78
2023/05/26 12:14:37;;;;;;;4.60;1.17;;;;;;;;;;10351280;28;20231;-78
2023/05/26 12:19:39;;;;;;;5.57;1.42;;;;;;;;;;10337205;28;20215;-77
2023/05/26 12:24:40;;;;;;;1.35;1.05;;;;;;;;;;10316941;28;20372;-79
2023/05/26 12:29:42;;;;;;;5.05;1.30;;;;;;;;;;10294988;28;20222;-77
2023/05/26 12:34:43;;;;;;;5.65;1.38;;;;;;;;;;10327952;28;20258;-78
2023/05/26 12:39:44;;;;;;;3.40;1.05;;;;;;;;;;10362688;28;20751;-78
2023/05/26 12:44:45;;;;;;;2.78;1.30;;;;;;;;;;10350027;28;20227;-78
2023/05/26 12:49:46;;;;;;;5.22;1.08;;;;;;;;;;10357722;28;20247;-77
2023/05/26 12:54:47;;;;;;;5.07;1.40;;;;;;;;;;10373522;28;20239;-79
2023/05/26 12:59:48;;;;;;;3.47;1.27;;;;;;;;;;10368682;28;20224;-75
2023/05/26 13:04:50;;;;;;;6.55;1.45;;;;;;;;;;10373848;28;21619;-79
2023/05/26 13:09:51;;;;;;;1.80;0.85;;;;;;;;;;10377456;28;20226;-77
2023/05/26 13:14:52;;;;;;;2.15;0.73;;;;;;;;;;10375382;28;20223;-78
2023/05/26 13:19:55;;;;;;;2.40;0.90;;;;;;;;;;10363916;28;20223;-80
2023/05/26 13:24:56;;;;;;;4.70;1.25;;;;;;;;;;10357881;28;21096;-76
2023/05/26 13:29:57;;;;;;;3.05;1.45;;;;;;;;;;10359432;28;20238;-79
2023/05/26 13:34:58;;;;;;;4.57;1.05;;;;;;;;;;10356520;28;20598;-79
2023/05/26 13:39:59;;;;;;;3.58;0.85;;;;;;;;;;10374432;28;20216;-80
2023/05/26 13:45:01;;;;;;;2.92;1.05;;;;;;;;;;10375955;28;20223;-78
2023/05/26 13:50:02;;;;;;;6.53;1.35;;;;;;;;;;10341112;28;20256;-78
2023/05/26 13:55:04;;;;;;;6.78;1.60;;;;;;;;;;10367841;28;20235;-77
2023/05/26 14:00:05;;;;;;;1.23;0.80;;;;;;;;;;10371342;28;20242;-78
2023/05/26 14:05:14;;;;;;;4.72;1.52;;;;;;;;;;10371726;28;21091;-79
2023/05/26 14:10:15;;;;;;;6.95;1.02;;;;;;;;;;10367746;28;20215;-80
2023/05/26 14:15:16;;;;;;;3.20;1.13;;;;;;;;;;10369826;28;20227;-77
2023/05/26 14:20:18;;;;;;;3.80;1.40;;;;;;;;;;10350602;28;20216;-80
2023/05/26 14:25:19;;;;;;;3.35;1.08;;;;;;;;;;10365865;28;20243;-80
2023/05/26 14:30:24;;;;;;;9.18;1.35;;;;;;;;;;10351197;28;20215;-78
2023/05/26 14:35:25;;;;;;;5.40;0.98;;;;;;;;;;10358507;28;20215;-74
2023/05/26 14:40:29;;;;;;;2.95;1.10;;;;;;;;;;10365338;28;20219;-78
2023/05/26 14:45:30;;;;;;;4.90;1.33;;;;;;;;;;10366785;28;20234;-74
2023/05/26 14:50:32;;;;;;;4.18;1.23;;;;;;;;;;10354989;28;20216;-75
2023/05/26 14:55:34;;;;;;;3.85;1.27;;;;;;;;;;10356794;28;20246;-76
2023/05/26 15:00:35;;;;;;;4.65;0.98;;;;;;;;;;10367033;28;20212;-76
2023/05/26 15:05:36;;;;;;;7.85;0.95;;;;;;;;;;10361898;28;20215;-76
2023/05/26 15:10:37;;;;;;;2.67;1.10;;;;;;;;;;10356630;28;20688;-79
2023/05/26 15:15:38;;;;;;;4.72;1.02;;;;;;;;;;10382638;28;20771;-76
2023/05/26 15:20:40;;;;;;;4.13;0.85;;;;;;;;;;10372718;28;20839;-79
2023/05/26 15:25:41;;;;;;;5.93;1.38;;;;;;;;;;10353002;28;20219;-76
2023/05/26 15:30:42;;;;;;;8.48;1.17;;;;;;;;;;10371457;28;20234;-78
2023/05/26 15:35:43;;;;;;;4.25;1.08;;;;;;;;;;10375225;28;20281;-75
2023/05/26 15:40:44;;;;;;;2.78;1.23;;;;;;;;;;10355090;28;20992;-78
2023/05/26 15:45:45;;;;;;;3.85;0.98;;;;;;;;;;10362297;28;20238;-76
2023/05/26 15:50:46;;;;;;;6.22;0.98;;;;;;;;;;10357358;28;20223;-75
2023/05/26 15:55:47;;;;;;;5.20;1.05;;;;;;;;;;10332499;28;20220;-78
2023/05/26 16:00:49;;;;;;;4.90;1.10;;;;;;;;;;10361208;28;20325;-77
2023/05/26 16:05:50;;;;;;;5.20;1.00;;;;;;;;;;10358167;28;20984;-78
2023/05/26 16:10:51;;;;;;;6.28;1.33;;;;;;;;;;10373423;28;20215;-78
2023/05/26 16:15:52;;;;;;;3.75;1.25;;;;;;;;;;10360859;28;20742;-79
2023/05/26 16:20:53;;;;;;;1.30;1.05;;;;;;;;;;10360334;28;20302;-78
2023/05/26 16:25:54;;;;;;;2.22;1.35;;;;;;;;;;10374730;28;20208;-76
2023/05/26 16:30:55;;;;;;;3.97;1.33;;;;;;;;;;10350582;28;20797;-77
2023/05/26 16:35:56;;;;;;;2.72;1.05;;;;;;;;;;10349283;28;20230;-77
2023/05/26 16:40:57;;;;;;;4.68;1.00;;;;;;;;;;10353716;28;20595;-79
2023/05/26 16:45:58;;;;;;;5.85;1.30;;;;;;;;;;10371375;28;20242;-77
2023/05/26 16:50:59;;;;;;;3.40;1.17;;;;;;;;;;10367631;28;20223;-79
2023/05/26 16:56:00;;;;;;;3.40;1.10;;;;;;;;;;10372404;28;20678;-79
2023/05/26 17:01:01;;;;;;;5.95;1.25;;;;;;;;;;10401042;28;20995;-79
2023/05/26 17:11:33;;;;;;;4.13;1.17;;;;;;;;;;10381016;28;20277;-79
2023/05/26 17:16:34;;;;;;;5.50;1.30;;;;;;;;;;10384708;28;20218;-76
2023/05/26 17:21:35;;;;;;;3.85;1.08;;;;;;;;;;10355429;28;20232;-73
2023/05/26 17:26:36;;;;;;;7.63;1.45;;;;;;;;;;10348686;28;20227;-78
2023/05/26 17:31:37;;;;;;;2.78;1.02;;;;;;;;;;10349099;28;20220;-75
2023/05/26 17:36:38;;;;;;;1.48;0.90;;;;;;;;;;10338335;28;20896;-76
2023/05/26 17:41:40;;;;;;;3.60;1.23;;;;;;;;;;10369190;28;20541;-77
2023/05/26 17:46:41;;;;;;;3.72;1.25;;;;;;;;;;10367466;28;20227;-78
2023/05/26 17:51:42;;;;;;;4.45;1.48;;;;;;;;;;10347501;28;20305;-80
2023/05/26 17:56:43;;;;;;;4.07;1.02;;;;;;;;;;10368675;28;20222;-78
2023/05/26 18:01:44;;;;;;;4.28;1.20;;;;;;;;;;10377316;28;20833;-78
2023/05/26 18:06:45;;;;;;;1.30;1.20;;;;;;;;;;10354048;28;20215;-78
2023/05/26 18:11:46;;;;;;;3.78;1.05;;;;;;;;;;10385031;28;20227;-78
2023/05/26 18:16:47;;;;;;;1.08;0.80;;;;;;;;;;10381558;28;20317;-78
2023/05/26 18:21:48;;;;;;;3.47;1.27;;;;;;;;;;10390035;28;20318;-78
2023/05/26 18:26:49;;;;;;;4.47;1.25;;;;;;;;;;10385845;28;20219;-77
2023/05/26 18:31:50;;;;;;;4.65;1.25;;;;;;;;;;10362192;28;20757;-78
2023/05/26 18:36:52;;;;;;;3.60;1.50;;;;;;;;;;10345063;28;20322;-77
2023/05/26 18:41:53;;;;;;;9.95;1.20;;;;;;;;;;10355966;28;20268;-78
2023/05/26 18:46:54;;;;;;;6.60;1.25;;;;;;;;;;10353008;28;20669;-78
2023/05/26 18:51:55;;;;;;;3.67;1.20;;;;;;;;;;10376453;28;20242;-79
2023/05/26 18:56:56;;;;;;;4.22;1.48;;;;;;;;;;10370596;28;20746;-79
2023/05/26 19:01:57;;;;;;;4.95;1.33;;;;;;;;;;10368068;28;20301;-79
2023/05/26 19:06:58;;;;;;;6.30;1.05;;;;;;;;;;10381649;28;20222;-78
2023/05/26 19:12:01;;;;;;;8.20;1.60;;;;;;;;;;10367396;28;20574;-77
2023/05/26 19:17:02;;;;;;;5.25;1.63;;;;;;;;;;10348757;28;20289;-78
2023/05/26 19:22:04;;;;;;;3.55;1.38;;;;;;;;;;10366346;28;20307;-78
2023/05/26 19:27:05;;;;;;;3.53;1.70;;;;;;;;;;10389783;28;20218;-78
2023/05/26 19:32:06;;;;;;;4.75;1.48;;;;;;;;;;10356417;28;20230;-78
2023/05/26 19:37:07;;;;;;;2.47;1.50;;;;;;;;;;10363854;28;20203;-77
2023/05/26 19:42:08;;;;;;;5.13;1.60;;;;;;;;;;10373539;28;20211;-79
2023/05/26 19:47:08;;;;;;;6.53;2.10;;;;;;;;;;10384920;28;20226;-77
2023/05/26 19:52:10;;;;;;;9.02;2.20;;;;;;;;;;10344949;28;20688;-79
2023/05/26 19:57:11;;;;;;;5.18;2.20;;;;;;;;;;10385185;28;20215;-77
2023/05/26 20:02:12;;;;;;;5.15;1.98;;;;;;;;;;10370192;28;20568;-77
2023/05/26 20:07:13;;;;;;;3.92;1.50;;;;;;;;;;10391528;28;20346;-77
2023/05/26 20:12:14;;;;;;;6.22;1.75;;;;;;;;;;10384127;28;20246;-78
2023/05/26 20:17:16;;;;;;;6.60;2.17;;;;;;;;;;10385315;28;20220;-80
2023/05/26 20:22:17;;;;;;;5.45;1.70;;;;;;;;;;10382385;28;20220;-78
2023/05/26 20:27:18;;;;;;;3.38;1.88;;;;;;;;;;10341105;28;20269;-77
2023/05/26 20:32:19;;;;;;;7.95;2.20;;;;;;;;;;10353932;28;20247;-76
2023/05/26 20:37:20;;;;;;;3.35;1.40;;;;;;;;;;10369812;28;20254;-77
2023/05/26 20:42:22;;;;;;;4.10;1.65;;;;;;;;;;10330848;28;20314;-77
2023/05/26 20:47:23;;;;;;;3.30;2.13;;;;;;;;;;10353424;28;20219;-78
2023/05/26 20:52:24;;;;;;;3.42;1.77;;;;;;;;;;10352957;28;20234;-77
2023/05/26 20:57:25;;;;;;;4.22;1.50;;;;;;;;;;10366563;28;20215;-80
2023/05/26 21:02:26;;;;;;;9.68;2.33;;;;;;;;;;10359907;28;20211;-78
2023/05/26 21:07:28;;;;;;;12.27;2.38;;;;;;;;;;10343834;28;20234;-78
2023/05/26 21:12:29;;;;;;;4.15;1.77;;;;;;;;;;10372810;28;20627;-77
2023/05/26 21:17:30;;;;;;;5.65;2.35;;;;;;;;;;10362436;28;20230;-78
2023/05/26 21:22:31;;;;;;;4.18;2.72;;;;;;;;;;10359629;28;20212;-79
2023/05/26 21:27:32;;;;;;;1.95;1.80;;;;;;;;;;10365918;28;20235;-78
2023/05/26 21:32:33;;;;;;;4.18;1.88;;;;;;;;;;10356320;28;20244;-80
2023/05/26 21:37:35;;;;;;;3.03;1.63;;;;;;;;;;10356885;28;21976;-76
2023/05/26 21:42:36;;;;;;;4.10;1.90;;;;;;;;;;10363801;28;20212;-79
2023/05/26 21:47:37;;;;;;;4.70;1.58;;;;;;;;;;10376136;28;20211;-78
2023/05/26 21:52:38;;;;;;;6.22;2.00;;;;;;;;;;10378558;28;20234;-78
2023/05/26 21:57:39;;;;;;;6.32;1.63;;;;;;;;;;10374114;28;20211;-82
2023/05/26 22:02:41;;;;;;;5.07;2.20;;;;;;;;;;10366495;28;21109;-80
2023/05/26 22:07:43;;;;;;;5.32;1.83;;;;;;;;;;10332734;28;20274;-81
2023/05/26 22:12:44;;;;;;;3.30;1.77;;;;;;;;;;10356637;28;20446;-80
2023/05/26 22:17:45;;;;;;;4.70;1.77;;;;;;;;;;10362499;28;20211;-77
2023/05/26 22:22:46;;;;;;;5.78;2.00;;;;;;;;;;10371171;28;20222;-77
2023/05/26 22:27:47;;;;;;;3.72;1.92;;;;;;;;;;10361389;28;20231;-80
2023/05/26 22:32:49;;;;;;;1.95;1.38;;;;;;;;;;10345328;28;20227;-78
2023/05/26 22:37:50;;;;;;;2.75;1.85;;;;;;;;;;10354311;28;20740;-78
2023/05/26 22:42:51;;;;;;;6.85;1.63;;;;;;;;;;10367571;28;20306;-79
2023/05/26 22:47:52;;;;;;;9.05;1.80;;;;;;;;;;10368819;28;20227;-79
2023/05/26 22:52:53;;;;;;;1.83;1.10;;;;;;;;;;10355493;28;20227;-77
2023/05/26 22:57:54;;;;;;;3.90;1.40;;;;;;;;;;10348876;28;20717;-79
2023/05/26 23:02:55;;;;;;;4.53;1.83;;;;;;;;;;10363032;28;20217;-78
2023/05/26 23:07:56;;;;;;;4.72;1.92;;;;;;;;;;10364153;28;20221;-78
2023/05/26 23:12:57;;;;;;;3.80;1.60;;;;;;;;;;10363324;28;22246;-80
2023/05/26 23:17:58;;;;;;;4.85;1.80;;;;;;;;;;10369088;28;20212;-76
2023/05/26 23:22:59;;;;;;;2.75;2.03;;;;;;;;;;10365119;28;20218;-82
2023/05/26 23:28:01;;;;;;;4.35;1.55;;;;;;;;;;10347954;28;20314;-80
2023/05/26 23:33:02;;;;;;;3.28;1.38;;;;;;;;;;10346599;28;20247;-79
2023/05/26 23:38:03;;;;;;;7.63;1.85;;;;;;;;;;10365136;28;20218;-81
2023/05/26 23:43:04;;;;;;;7.30;1.45;;;;;;;;;;10360099;28;20231;-77
2023/05/26 23:48:06;;;;;;;3.42;1.92;;;;;;;;;;10363200;28;20227;-78
2023/05/26 23:53:07;;;;;;;2.75;1.73;;;;;;;;;;10366955;28;20322;-80
2023/05/26 23:58:08;;;;;;;6.10;1.73;;;;;;;;;;10366845;28;20246;-77
